Time;durP1;ratioP1;P1;durP2;ratioP2;P2;SDS_P1;SDS_P2;PMS_P1;PMS_P2;Temp;Humidity;BMP_temperature;BMP_pressure;BME280_temperature;BME280_humidity;BME280_pressure;Samples;Min_cycle;Max_cycle;Signal;HPM_P1;HPM_P2
2022/12/03 00:02:22;;;;;;;;;;;18.80;41.80;;;;;;5094051;28;19919;-62
2022/12/03 00:04:50;;;;;;;;;;;18.80;41.80;;;;;;5080773;27;19931;-63
2022/12/03 00:07:17;;;;;;;;;;;18.80;41.80;;;;;;5102643;28;19928;-63
2022/12/03 00:09:44;;;;;;;;;;;18.80;41.70;;;;;;5108666;28;19920;-63
2022/12/03 00:12:11;;;;;;;;;;;18.80;41.70;;;;;;5091817;28;20032;-62
2022/12/03 00:14:37;;;;;;;;;;;18.80;41.70;;;;;;5088047;28;19928;-64
2022/12/03 00:17:04;;;;;;;;;;;18.80;41.70;;;;;;5093375;28;20290;-63
2022/12/03 00:19:31;;;;;;;;;;;18.80;41.70;;;;;;5074200;28;19920;-62
2022/12/03 00:21:59;;;;;;;;;;;18.80;41.70;;;;;;5103502;28;20258;-65
2022/12/03 00:24:26;;;;;;;;;;;18.80;41.70;;;;;;5073547;28;19981;-62
2022/12/03 00:26:53;;;;;;;;;;;18.80;41.70;;;;;;5088059;28;19952;-62
2022/12/03 00:29:19;;;;;;;;;;;18.80;41.70;;;;;;5088654;28;20383;-62
2022/12/03 00:31:46;;;;;;;;;;;18.80;41.70;;;;;;5093413;28;20350;-63
2022/12/03 00:34:13;;;;;;;;;;;18.80;41.70;;;;;;5093744;28;19920;-62
2022/12/03 00:36:40;;;;;;;;;;;18.80;41.70;;;;;;5109220;28;20014;-63
2022/12/03 00:39:08;;;;;;;;;;;18.70;41.70;;;;;;5077420;28;19927;-64
2022/12/03 00:41:35;;;;;;;;;;;18.80;41.70;;;;;;5087702;28;19920;-62
2022/12/03 00:44:02;;;;;;;;;;;18.80;41.70;;;;;;5092111;28;19924;-62
2022/12/03 00:46:29;;;;;;;;;;;18.70;41.60;;;;;;5076176;28;19963;-63
2022/12/03 00:48:56;;;;;;;;;;;18.80;41.70;;;;;;5086479;28;19919;-61
2022/12/03 00:51:22;;;;;;;;;;;18.70;41.60;;;;;;5086998;28;19966;-61
2022/12/03 00:53:49;;;;;;;;;;;18.70;41.60;;;;;;5073412;28;19924;-63
2022/12/03 00:56:17;;;;;;;;;;;18.70;41.70;;;;;;5084749;28;19968;-62
2022/12/03 00:58:44;;;;;;;;;;;18.70;42.20;;;;;;5091644;28;19926;-62
2022/12/03 01:01:11;;;;;;;;;;;18.70;41.60;;;;;;5091247;28;19919;-64
2022/12/03 01:03:38;;;;;;;;;;;18.70;41.60;;;;;;5073079;28;19973;-63
2022/12/03 01:06:05;;;;;;;;;;;18.70;41.60;;;;;;5081533;28;19920;-63
2022/12/03 01:08:31;;;;;;;;;;;18.70;41.60;;;;;;5083406;28;19920;-64
2022/12/03 01:10:58;;;;;;;;;;;18.70;41.60;;;;;;5098471;28;20355;-61
2022/12/03 01:13:26;;;;;;;;;;;18.70;41.60;;;;;;5098250;28;19928;-62
2022/12/03 01:15:53;;;;;;;;;;;18.70;41.60;;;;;;5096939;28;19927;-62
2022/12/03 01:18:20;;;;;;;;;;;18.70;41.60;;;;;;5084617;28;19920;-62
2022/12/03 01:20:46;;;;;;;;;;;18.70;41.60;;;;;;5078028;28;19920;-62
2022/12/03 01:23:13;;;;;;;;;;;18.70;41.60;;;;;;5088090;28;19923;-62
2022/12/03 01:25:40;;;;;;;;;;;18.70;41.60;;;;;;5076893;28;19932;-63
2022/12/03 01:28:07;;;;;;;;;;;18.70;41.60;;;;;;5101075;28;19924;-62
2022/12/03 01:32:15;;;;;;;;;;;18.70;41.60;;;;;;5109767;28;19919;-62
2022/12/03 01:33:20;;;;;;;;;;;18.70;41.60;;;;;;5092490;28;19969;-62
2022/12/03 01:35:47;;;;;;;;;;;18.70;41.60;;;;;;5092030;28;19923;-62
2022/12/03 01:38:14;;;;;;;;;;;18.70;41.60;;;;;;5078204;28;20074;-63
2022/12/03 01:40:41;;;;;;;;;;;18.70;42.10;;;;;;5098829;28;19965;-63
2022/12/03 01:43:07;;;;;;;;;;;18.70;41.60;;;;;;5096859;28;19928;-61
2022/12/03 01:45:36;;;;;;;;;;;18.70;41.60;;;;;;5096858;28;19941;-62
2022/12/03 01:48:02;;;;;;;;;;;18.70;41.60;;;;;;5094238;28;19924;-63
2022/12/03 01:50:30;;;;;;;;;;;18.70;41.60;;;;;;5096915;28;19927;-61
2022/12/03 01:52:57;;;;;;;;;;;18.70;41.60;;;;;;5088958;28;20312;-62
2022/12/03 01:55:24;;;;;;;;;;;18.70;41.60;;;;;;5086881;28;19920;-62
2022/12/03 01:57:51;;;;;;;;;;;18.70;41.50;;;;;;5092666;28;19928;-63
2022/12/03 02:00:19;;;;;;;;;;;18.70;41.60;;;;;;5076402;28;19985;-62
2022/12/03 02:03:07;;;;;;;;;;;18.70;41.60;;;;;;5109366;28;20032;-63
2022/12/03 02:05:34;;;;;;;;;;;18.70;41.60;;;;;;5112983;28;19931;-63
2022/12/03 02:08:01;;;;;;;;;;;18.70;41.60;;;;;;5086702;28;19924;-63
2022/12/03 02:10:28;;;;;;;;;;;18.70;41.60;;;;;;5077064;28;19920;-62
2022/12/03 02:12:56;;;;;;;;;;;18.70;41.60;;;;;;5075932;28;19924;-63
2022/12/03 02:15:23;;;;;;;;;;;18.70;41.60;;;;;;5093580;28;19923;-63
2022/12/03 02:17:49;;;;;;;;;;;18.70;41.60;;;;;;5081117;28;19924;-62
2022/12/03 02:20:17;;;;;;;;;;;18.70;41.60;;;;;;5095656;28;19924;-61
2022/12/03 02:22:46;;;;;;;;;;;18.70;41.50;;;;;;5091380;28;19920;-62
2022/12/03 02:25:15;;;;;;;;;;;18.60;41.50;;;;;;5090528;28;19924;-62
2022/12/03 02:27:42;;;;;;;;;;;18.60;41.40;;;;;;5089681;28;19930;-63
2022/12/03 02:30:09;;;;;;;;;;;18.60;41.50;;;;;;5090478;28;19924;-62
2022/12/03 02:32:36;;;;;;;;;;;18.60;41.40;;;;;;5106164;28;19924;-63
2022/12/03 02:35:03;;;;;;;;;;;18.60;41.50;;;;;;5106787;28;19923;-62
2022/12/03 02:37:30;;;;;;;;;;;18.60;41.40;;;;;;5082366;28;19928;-64
2022/12/03 02:39:58;;;;;;;;;;;18.70;41.50;;;;;;5087288;28;19968;-63
2022/12/03 02:42:34;;;;;;;;;;;18.60;41.40;;;;;;5079482;28;19931;-64
2022/12/03 02:45:01;;;;;;;;;;;18.60;41.40;;;;;;5094673;28;19924;-62
2022/12/03 02:47:28;;;;;;;;;;;18.60;41.40;;;;;;5095740;28;19971;-66
2022/12/03 02:49:55;;;;;;;;;;;18.60;41.40;;;;;;5109012;28;19935;-63
2022/12/03 02:52:22;;;;;;;;;;;18.70;41.50;;;;;;5095859;28;19919;-62
2022/12/03 02:54:49;;;;;;;;;;;18.60;41.40;;;;;;5089277;28;19920;-62
2022/12/03 02:57:15;;;;;;;;;;;18.60;41.40;;;;;;5078705;28;20373;-63
2022/12/03 02:59:44;;;;;;;;;;;18.60;41.40;;;;;;5083655;28;19920;-63
2022/12/03 03:02:11;;;;;;;;;;;18.60;41.40;;;;;;5094828;28;19962;-64
2022/12/03 03:04:38;;;;;;;;;;;18.60;41.30;;;;;;5095111;28;19930;-62
2022/12/03 03:07:04;;;;;;;;;;;18.60;41.30;;;;;;5081965;28;19924;-64
2022/12/03 03:09:31;;;;;;;;;;;18.60;41.40;;;;;;5082034;28;19920;-63
2022/12/03 03:11:58;;;;;;;;;;;18.60;41.30;;;;;;5094512;28;19924;-63
2022/12/03 03:14:25;;;;;;;;;;;18.60;41.30;;;;;;5094440;28;19951;-63
2022/12/03 03:16:54;;;;;;;;;;;18.60;41.30;;;;;;5082604;28;20074;-63
2022/12/03 03:19:22;;;;;;;;;;;18.60;41.30;;;;;;5086714;28;19924;-63
2022/12/03 03:21:49;;;;;;;;;;;18.60;41.30;;;;;;5084296;28;19920;-63
2022/12/03 03:24:15;;;;;;;;;;;18.60;41.30;;;;;;5078737;28;19965;-64
2022/12/03 03:26:42;;;;;;;;;;;18.60;41.30;;;;;;5093582;28;19921;-62
2022/12/03 03:29:09;;;;;;;;;;;18.60;41.30;;;;;;5094392;28;19931;-64
2022/12/03 03:31:36;;;;;;;;;;;18.60;41.30;;;;;;5106357;28;19927;-63
2022/12/03 03:34:04;;;;;;;;;;;18.60;41.30;;;;;;5087362;28;19957;-63
2022/12/03 03:36:30;;;;;;;;;;;18.60;41.30;;;;;;5094991;28;19973;-63
2022/12/03 03:38:57;;;;;;;;;;;18.60;41.30;;;;;;5080591;28;19943;-62
2022/12/03 03:41:24;;;;;;;;;;;18.60;41.30;;;;;;5076480;28;19931;-63
2022/12/03 03:43:51;;;;;;;;;;;18.60;41.20;;;;;;5074420;28;19924;-62
2022/12/03 03:46:18;;;;;;;;;;;18.60;41.30;;;;;;5093450;28;19924;-63
2022/12/03 03:48:45;;;;;;;;;;;18.60;41.30;;;;;;5072914;28;19924;-62
2022/12/03 03:51:13;;;;;;;;;;;18.60;41.20;;;;;;5077699;28;19924;-63
2022/12/03 03:53:40;;;;;;;;;;;18.60;41.20;;;;;;5106716;28;20378;-62
2022/12/03 03:56:07;;;;;;;;;;;18.60;41.20;;;;;;5110319;28;19926;-62
2022/12/03 03:58:34;;;;;;;;;;;18.60;41.20;;;;;;5084143;28;19920;-63
2022/12/03 04:01:01;;;;;;;;;;;18.60;41.20;;;;;;5089869;28;20330;-61
2022/12/03 04:03:28;;;;;;;;;;;18.60;41.20;;;;;;5093463;28;19926;-65
2022/12/03 04:05:54;;;;;;;;;;;18.60;41.20;;;;;;5077494;28;19926;-61
2022/12/03 04:08:22;;;;;;;;;;;18.60;41.20;;;;;;5094793;28;20212;-62
2022/12/03 04:13:33;;;;;;;;;;;18.60;41.20;;;;;;5112483;28;19919;-61
2022/12/03 04:16:00;;;;;;;;;;;18.60;41.20;;;;;;5092556;27;19924;-64
2022/12/03 04:18:42;;;;;;;;;;;18.60;41.20;;;;;;5084966;28;19927;-61
2022/12/03 04:23:55;;;;;;;;;;;18.60;41.10;;;;;;5095272;28;19920;-63
2022/12/03 04:29:06;;;;;;;;;;;18.60;41.10;;;;;;5086353;28;20378;-62
2022/12/03 04:37:01;;;;;;;;;;;18.60;41.10;;;;;;5102221;28;19924;-62
2022/12/03 04:39:30;;;;;;;;;;;18.60;41.10;;;;;;5093144;28;19920;-62
2022/12/03 04:42:12;;;;;;;;;;;18.60;41.10;;;;;;5051582;28;20147;-63
2022/12/03 04:44:39;;;;;;;;;;;18.60;41.10;;;;;;5098406;28;20365;-63
2022/12/03 04:47:07;;;;;;;;;;;18.60;41.10;;;;;;5079591;28;19928;-61
2022/12/03 04:49:34;;;;;;;;;;;18.60;41.10;;;;;;5074914;28;19920;-62
2022/12/03 04:52:00;;;;;;;;;;;18.60;41.10;;;;;;5093449;28;19967;-63
2022/12/03 04:54:27;;;;;;;;;;;18.60;41.00;;;;;;5108351;28;19989;-61
2022/12/03 04:56:55;;;;;;;;;;;18.50;40.90;;;;;;5110621;28;19920;-63
2022/12/03 04:59:22;;;;;;;;;;;18.50;40.90;;;;;;5092549;28;20327;-63
2022/12/03 05:01:49;;;;;;;;;;;18.50;40.90;;;;;;5084284;28;19969;-62
2022/12/03 05:04:16;;;;;;;;;;;18.50;40.90;;;;;;5090878;28;19920;-64
2022/12/03 05:06:42;;;;;;;;;;;18.60;41.00;;;;;;5092017;28;19919;-62
2022/12/03 05:09:09;;;;;;;;;;;18.50;40.90;;;;;;5110954;28;19919;-63
2022/12/03 05:11:36;;;;;;;;;;;18.50;40.90;;;;;;5100378;28;20385;-63
2022/12/03 05:14:04;;;;;;;;;;;18.50;40.90;;;;;;5082464;28;19924;-63
2022/12/03 05:16:33;;;;;;;;;;;18.60;41.00;;;;;;5092825;28;19993;-64
2022/12/03 05:19:00;;;;;;;;;;;18.50;40.90;;;;;;5076479;28;19920;-63
2022/12/03 05:21:26;;;;;;;;;;;18.60;41.00;;;;;;5081309;28;19920;-62
2022/12/03 05:23:52;;;;;;;;;;;18.50;40.90;;;;;;5072674;28;19923;-63
2022/12/03 05:26:19;;;;;;;;;;;18.50;40.90;;;;;;5075504;28;19924;-62
2022/12/03 05:28:50;;;;;;;;;;;18.50;40.90;;;;;;5096423;28;19926;-62
2022/12/03 05:31:20;;;;;;;;;;;18.50;40.90;;;;;;5093189;28;19927;-62
2022/12/03 05:33:47;;;;;;;;;;;18.50;40.90;;;;;;5090731;28;20259;-62
2022/12/03 05:36:13;;;;;;;;;;;18.50;40.90;;;;;;5083076;28;20404;-63
2022/12/03 05:38:40;;;;;;;;;;;18.50;40.90;;;;;;5090629;28;20304;-62
2022/12/03 05:42:52;;;;;;;;;;;18.50;40.90;;;;;;5073137;28;20031;-63
2022/12/03 05:43:53;;;;;;;;;;;18.50;40.90;;;;;;5072626;28;20492;-63
2022/12/03 05:46:21;;;;;;;;;;;18.50;40.90;;;;;;5078625;28;20006;-62
2022/12/03 05:48:48;;;;;;;;;;;18.50;40.90;;;;;;5071814;28;20429;-62
2022/12/03 05:51:15;;;;;;;;;;;18.50;40.80;;;;;;5103580;28;19924;-63
2022/12/03 05:53:42;;;;;;;;;;;18.60;40.90;;;;;;5080120;28;19931;-63
2022/12/03 05:56:08;;;;;;;;;;;18.50;41.40;;;;;;5083908;28;19920;-63
2022/12/03 05:58:38;;;;;;;;;;;18.50;40.80;;;;;;5109901;28;19920;-63
2022/12/03 06:01:04;;;;;;;;;;;18.50;40.80;;;;;;5087234;28;20369;-63
2022/12/03 06:03:33;;;;;;;;;;;18.50;40.80;;;;;;5073114;28;19928;-63
2022/12/03 06:05:59;;;;;;;;;;;18.50;40.80;;;;;;5089284;28;19950;-62
2022/12/03 06:08:26;;;;;;;;;;;18.50;40.70;;;;;;5074739;28;19920;-63
2022/12/03 06:10:53;;;;;;;;;;;18.60;40.80;;;;;;5099224;28;19919;-63
2022/12/03 06:13:20;;;;;;;;;;;18.60;40.80;;;;;;5084805;28;19924;-63
2022/12/03 06:15:46;;;;;;;;;;;18.50;40.80;;;;;;5079625;28;19923;-63
2022/12/03 06:18:13;;;;;;;;;;;18.50;40.70;;;;;;5077470;28;19960;-63
2022/12/03 06:20:41;;;;;;;;;;;18.50;40.80;;;;;;5108066;28;19930;-63
2022/12/03 06:23:08;;;;;;;;;;;18.50;40.80;;;;;;5092820;28;19933;-63
2022/12/03 06:25:35;;;;;;;;;;;18.50;40.70;;;;;;5086995;28;19920;-62
2022/12/03 06:28:02;;;;;;;;;;;18.50;40.70;;;;;;5090467;28;19943;-62
2022/12/03 06:30:33;;;;;;;;;;;18.60;40.70;;;;;;5079840;28;19928;-62
2022/12/03 06:32:59;;;;;;;;;;;18.50;40.70;;;;;;5076630;28;19927;-62
2022/12/03 06:35:26;;;;;;;;;;;18.50;40.70;;;;;;5079036;28;19924;-63
2022/12/03 06:37:54;;;;;;;;;;;18.50;40.70;;;;;;5099187;28;19973;-62
2022/12/03 06:40:23;;;;;;;;;;;18.50;40.70;;;;;;5095584;28;19973;-62
2022/12/03 06:42:50;;;;;;;;;;;18.50;40.70;;;;;;5096566;28;19920;-62
2022/12/03 06:45:16;;;;;;;;;;;18.50;40.60;;;;;;5076974;28;19924;-63
2022/12/03 06:47:43;;;;;;;;;;;18.50;40.70;;;;;;5087604;28;20021;-63
2022/12/03 06:50:10;;;;;;;;;;;18.50;40.70;;;;;;5109298;28;19973;-62
2022/12/03 06:52:37;;;;;;;;;;;18.50;40.70;;;;;;5095377;28;19920;-63
2022/12/03 06:55:06;;;;;;;;;;;18.50;40.70;;;;;;5077879;28;19942;-62
2022/12/03 06:57:32;;;;;;;;;;;18.50;40.70;;;;;;5112104;28;19973;-62
2022/12/03 06:59:59;;;;;;;;;;;18.50;40.70;;;;;;5079338;28;19927;-62
2022/12/03 07:02:26;;;;;;;;;;;18.50;40.70;;;;;;5093588;28;19972;-62
2022/12/03 07:04:52;;;;;;;;;;;18.50;40.70;;;;;;5080602;28;19969;-63
2022/12/03 07:07:19;;;;;;;;;;;18.50;40.70;;;;;;5091297;28;19985;-62
2022/12/03 07:09:46;;;;;;;;;;;18.50;40.60;;;;;;5110719;28;19931;-61
2022/12/03 07:12:14;;;;;;;;;;;18.50;40.60;;;;;;5093271;28;19920;-62
2022/12/03 07:14:41;;;;;;;;;;;18.50;40.60;;;;;;5094797;28;19919;-62
2022/12/03 07:17:08;;;;;;;;;;;18.50;40.70;;;;;;5093771;28;19920;-62
2022/12/03 07:19:34;;;;;;;;;;;18.50;40.60;;;;;;5106663;28;19927;-63
2022/12/03 07:22:01;;;;;;;;;;;18.50;40.60;;;;;;5111592;28;20361;-62
2022/12/03 07:24:30;;;;;;;;;;;18.50;40.60;;;;;;5094395;28;19920;-62
2022/12/03 07:26:57;;;;;;;;;;;18.50;40.60;;;;;;5076818;28;19920;-62
2022/12/03 07:29:25;;;;;;;;;;;18.50;40.60;;;;;;5106575;28;19924;-63
2022/12/03 07:31:52;;;;;;;;;;;18.50;40.60;;;;;;5094381;28;19931;-62
2022/12/03 07:34:19;;;;;;;;;;;18.50;41.20;;;;;;5091302;28;20338;-62
2022/12/03 07:36:45;;;;;;;;;;;18.50;40.60;;;;;;5088212;28;19926;-62
2022/12/03 07:39:12;;;;;;;;;;;18.50;40.50;;;;;;5110296;28;19950;-62
2022/12/03 07:41:39;;;;;;;;;;;18.50;40.60;;;;;;5089584;28;19920;-62
2022/12/03 07:44:06;;;;;;;;;;;18.50;40.60;;;;;;5093786;28;19919;-62
2022/12/03 07:46:34;;;;;;;;;;;18.50;40.60;;;;;;5089993;28;19930;-62
2022/12/03 07:49:02;;;;;;;;;;;18.50;40.50;;;;;;5092177;28;20373;-63
2022/12/03 07:51:29;;;;;;;;;;;18.50;40.50;;;;;;5093703;28;19947;-62
2022/12/03 07:53:55;;;;;;;;;;;18.50;40.50;;;;;;5093147;28;19920;-62
2022/12/03 07:56:22;;;;;;;;;;;18.50;40.50;;;;;;5090203;28;19920;-62
2022/12/03 07:58:49;;;;;;;;;;;18.50;40.50;;;;;;5092470;28;19923;-63
2022/12/03 08:01:16;;;;;;;;;;;18.50;40.50;;;;;;5112193;28;19927;-62
2022/12/03 08:03:44;;;;;;;;;;;18.50;40.50;;;;;;5092048;28;19923;-62
2022/12/03 08:06:10;;;;;;;;;;;18.50;40.50;;;;;;5109275;28;19926;-61
2022/12/03 08:08:37;;;;;;;;;;;18.50;40.50;;;;;;5090549;28;20371;-61
2022/12/03 08:11:04;;;;;;;;;;;18.50;40.40;;;;;;5093561;28;20366;-61
2022/12/03 08:13:32;;;;;;;;;;;18.50;40.40;;;;;;5091538;28;19920;-62
2022/12/03 08:15:59;;;;;;;;;;;18.50;40.40;;;;;;5107828;28;19935;-61
2022/12/03 08:18:27;;;;;;;;;;;18.50;40.40;;;;;;5092246;28;19927;-61
2022/12/03 08:20:55;;;;;;;;;;;18.50;40.40;;;;;;5109145;28;20324;-61
2022/12/03 08:23:22;;;;;;;;;;;18.50;40.40;;;;;;5093356;28;19919;-61
2022/12/03 08:25:49;;;;;;;;;;;18.50;40.40;;;;;;5094087;28;20259;-61
2022/12/03 08:28:17;;;;;;;;;;;18.50;40.40;;;;;;5107153;28;19924;-62
2022/12/03 08:30:44;;;;;;;;;;;18.50;40.40;;;;;;5091439;28;19927;-62
2022/12/03 08:33:18;;;;;;;;;;;18.50;40.40;;;;;;5090740;28;20365;-61
2022/12/03 08:35:46;;;;;;;;;;;18.50;40.40;;;;;;5075900;28;20254;-62
2022/12/03 08:38:14;;;;;;;;;;;18.50;40.40;;;;;;5087523;28;19920;-61
2022/12/03 08:40:41;;;;;;;;;;;18.50;40.40;;;;;;5090111;28;19968;-62
2022/12/03 08:43:13;;;;;;;;;;;18.50;40.40;;;;;;5089794;28;19927;-61
2022/12/03 08:45:39;;;;;;;;;;;18.50;40.40;;;;;;5109564;28;19924;-62
2022/12/03 08:48:12;;;;;;;;;;;18.50;40.40;;;;;;5093495;28;19951;-62
2022/12/03 08:50:39;;;;;;;;;;;18.50;40.40;;;;;;5109873;28;20385;-61
2022/12/03 08:53:09;;;;;;;;;;;18.50;40.40;;;;;;5091575;28;19957;-62
2022/12/03 08:55:37;;;;;;;;;;;18.50;40.90;;;;;;5091128;28;19927;-62
2022/12/03 08:58:05;;;;;;;;;;;18.50;40.40;;;;;;5091692;28;19927;-64
2022/12/03 09:00:32;;;;;;;;;;;18.50;40.40;;;;;;5109643;28;19927;-61
2022/12/03 09:02:59;;;;;;;;;;;18.50;40.40;;;;;;5107529;28;19973;-63
2022/12/03 09:05:27;;;;;;;;;;;18.50;40.30;;;;;;5093265;28;19942;-62
2022/12/03 09:07:54;;;;;;;;;;;18.50;40.30;;;;;;5090348;28;19926;-63
2022/12/03 09:10:21;;;;;;;;;;;18.50;40.30;;;;;;5094578;28;19919;-63
2022/12/03 09:12:49;;;;;;;;;;;18.50;40.30;;;;;;5089119;28;19919;-63
2022/12/03 09:15:16;;;;;;;;;;;18.50;40.30;;;;;;5088593;28;20146;-62
2022/12/03 09:17:43;;;;;;;;;;;18.50;40.30;;;;;;5087589;28;19926;-64
2022/12/03 09:20:10;;;;;;;;;;;18.50;40.30;;;;;;5092775;28;19965;-64
2022/12/03 09:22:37;;;;;;;;;;;18.50;40.30;;;;;;5094387;28;20014;-62
2022/12/03 09:25:04;;;;;;;;;;;18.50;40.30;;;;;;5088076;28;20413;-62
2022/12/03 09:27:31;;;;;;;;;;;18.50;40.30;;;;;;5091047;28;19945;-62
2022/12/03 09:29:59;;;;;;;;;;;18.50;40.30;;;;;;5089709;28;19923;-62
2022/12/03 09:32:26;;;;;;;;;;;18.50;40.30;;;;;;5091495;28;19920;-62
2022/12/03 09:34:53;;;;;;;;;;;18.50;40.40;;;;;;5103758;28;19932;-62
2022/12/03 09:37:21;;;;;;;;;;;18.50;40.30;;;;;;5091698;28;19932;-62
2022/12/03 09:39:47;;;;;;;;;;;18.50;40.30;;;;;;5088578;28;19958;-63
2022/12/03 09:42:14;;;;;;;;;;;18.50;40.30;;;;;;5093678;28;19932;-62
2022/12/03 09:44:41;;;;;;;;;;;18.50;40.30;;;;;;5091690;28;19933;-62
2022/12/03 09:47:09;;;;;;;;;;;18.50;40.40;;;;;;5086442;28;19939;-65
2022/12/03 09:49:36;;;;;;;;;;;18.50;40.40;;;;;;5093234;28;19920;-63
2022/12/03 09:52:03;;;;;;;;;;;18.50;40.40;;;;;;5081620;28;19927;-61
2022/12/03 09:54:31;;;;;;;;;;;18.50;40.40;;;;;;5088546;28;19958;-62
2022/12/03 09:56:59;;;;;;;;;;;18.50;40.40;;;;;;5079214;28;20503;-62
2022/12/03 09:59:27;;;;;;;;;;;18.50;40.40;;;;;;5086622;28;19933;-63
2022/12/03 10:01:53;;;;;;;;;;;18.50;40.50;;;;;;5113320;28;19926;-62
2022/12/03 10:04:22;;;;;;;;;;;18.50;40.50;;;;;;5092556;28;19927;-62
2022/12/03 10:06:48;;;;;;;;;;;18.50;40.40;;;;;;5085625;28;19924;-62
2022/12/03 10:09:19;;;;;;;;;;;18.50;40.50;;;;;;5090806;28;19923;-62
2022/12/03 10:11:46;;;;;;;;;;;18.50;40.50;;;;;;5107592;28;19931;-63
2022/12/03 10:14:13;;;;;;;;;;;18.50;40.50;;;;;;5094404;28;20266;-62
2022/12/03 10:16:40;;;;;;;;;;;18.50;40.50;;;;;;5095433;28;19924;-62
2022/12/03 10:19:06;;;;;;;;;;;18.50;40.50;;;;;;5098903;28;19920;-62
2022/12/03 10:21:36;;;;;;;;;;;18.60;40.60;;;;;;5086807;28;19935;-62
2022/12/03 10:24:20;;;;;;;;;;;18.50;40.50;;;;;;5090628;28;19924;-61
2022/12/03 10:26:47;;;;;;;;;;;18.50;40.50;;;;;;5081220;28;19927;-64
2022/12/03 10:29:14;;;;;;;;;;;18.60;40.60;;;;;;5091933;28;20011;-62
2022/12/03 10:31:41;;;;;;;;;;;18.50;40.50;;;;;;5086672;27;19927;-62
2022/12/03 10:34:08;;;;;;;;;;;18.50;40.60;;;;;;5094586;28;19930;-62
2022/12/03 10:36:36;;;;;;;;;;;18.50;40.60;;;;;;5095725;28;19927;-63
2022/12/03 10:39:08;;;;;;;;;;;18.50;40.60;;;;;;5082276;28;19920;-64
2022/12/03 10:41:34;;;;;;;;;;;18.50;40.60;;;;;;5095597;28;19993;-63
2022/12/03 10:44:11;;;;;;;;;;;18.50;40.70;;;;;;5097048;28;20377;-65
2022/12/03 10:46:38;;;;;;;;;;;18.60;40.70;;;;;;5081572;28;19920;-63
2022/12/03 10:49:08;;;;;;;;;;;18.60;41.10;;;;;;5088861;28;19973;-63
2022/12/03 10:51:37;;;;;;;;;;;18.60;40.70;;;;;;5106918;28;19928;-62
2022/12/03 10:54:05;;;;;;;;;;;18.60;40.60;;;;;;5077464;28;19943;-62
2022/12/03 10:56:32;;;;;;;;;;;18.60;40.40;;;;;;5115304;28;19980;-63
2022/12/03 10:58:59;;;;;;;;;;;18.60;40.20;;;;;;5099045;28;19920;-62
2022/12/03 11:01:26;;;;;;;;;;;18.60;40.00;;;;;;5096304;28;20289;-63
2022/12/03 11:03:52;;;;;;;;;;;18.60;39.80;;;;;;5096490;28;19920;-63
2022/12/03 11:06:20;;;;;;;;;;;18.60;39.60;;;;;;5095003;28;19919;-63
2022/12/03 11:08:48;;;;;;;;;;;18.50;39.10;;;;;;5091957;28;19920;-61
2022/12/03 11:11:16;;;;;;;;;;;18.50;38.90;;;;;;5108777;28;19931;-63
2022/12/03 11:13:52;;;;;;;;;;;18.50;38.70;;;;;;5110015;28;19927;-64
2022/12/03 11:16:46;;;;;;;;;;;18.50;38.50;;;;;;5112765;28;19920;-62
2022/12/03 11:19:16;;;;;;;;;;;18.50;38.30;;;;;;5054499;28;19935;-63
2022/12/03 11:21:57;;;;;;;;;;;18.50;38.10;;;;;;5098335;28;19923;-63
2022/12/03 11:24:26;;;;;;;;;;;18.50;37.90;;;;;;5095765;28;19934;-62
2022/12/03 11:27:16;;;;;;;;;;;18.40;37.60;;;;;;5087504;28;19927;-63
2022/12/03 11:29:50;;;;;;;;;;;18.50;37.70;;;;;;5086822;28;19988;-62
2022/12/03 11:32:35;;;;;;;;;;;18.40;37.40;;;;;;5094895;28;19955;-64
2022/12/03 11:35:02;;;;;;;;;;;18.40;37.40;;;;;;5114566;28;19923;-63
2022/12/03 11:37:29;;;;;;;;;;;18.40;37.30;;;;;;5097978;28;19920;-64
2022/12/03 11:40:04;;;;;;;;;;;18.40;37.20;;;;;;5099095;28;19924;-64
2022/12/03 11:42:37;;;;;;;;;;;18.40;37.00;;;;;;5117228;28;19920;-63
2022/12/03 11:45:12;;;;;;;;;;;18.40;37.00;;;;;;5080219;28;19924;-63
2022/12/03 11:47:40;;;;;;;;;;;18.30;36.70;;;;;;5086796;28;19919;-63
2022/12/03 11:50:11;;;;;;;;;;;18.30;36.60;;;;;;5108740;28;19927;-63
2022/12/03 11:52:39;;;;;;;;;;;18.30;36.70;;;;;;5091943;28;19920;-63
2022/12/03 11:55:15;;;;;;;;;;;18.40;36.60;;;;;;5080210;28;19923;-63
2022/12/03 11:57:43;;;;;;;;;;;18.30;36.30;;;;;;5099114;28;19969;-64
2022/12/03 12:00:18;;;;;;;;;;;18.30;36.80;;;;;;5096478;28;20057;-64
2022/12/03 12:02:45;;;;;;;;;;;18.30;37.20;;;;;;5098667;28;19920;-63
2022/12/03 12:05:19;;;;;;;;;;;18.30;37.50;;;;;;5098932;28;19920;-64
2022/12/03 12:07:46;;;;;;;;;;;18.30;37.60;;;;;;5078572;28;19931;-63
2022/12/03 12:10:15;;;;;;;;;;;18.30;37.90;;;;;;5090908;28;19927;-64
2022/12/03 12:12:43;;;;;;;;;;;18.30;38.00;;;;;;5104169;28;20377;-63
2022/12/03 12:15:28;;;;;;;;;;;18.40;38.20;;;;;;5082186;28;19926;-62
2022/12/03 12:17:55;;;;;;;;;;;18.30;38.20;;;;;;5096599;28;19927;-63
2022/12/03 12:20:23;;;;;;;;;;;18.40;38.40;;;;;;5093757;28;19919;-63
2022/12/03 12:22:50;;;;;;;;;;;18.40;38.50;;;;;;5098286;28;19919;-62
2022/12/03 12:25:32;;;;;;;;;;;18.40;38.60;;;;;;5081499;28;19931;-61
2022/12/03 12:28:00;;;;;;;;;;;18.40;38.70;;;;;;5094478;28;19919;-63
2022/12/03 12:30:27;;;;;;;;;;;18.40;38.70;;;;;;5082565;28;19949;-66
2022/12/03 12:32:56;;;;;;;;;;;18.40;38.80;;;;;;5094549;28;19927;-63
2022/12/03 12:35:23;;;;;;;;;;;18.50;39.00;;;;;;5094992;28;19926;-65
2022/12/03 12:37:52;;;;;;;;;;;18.50;39.00;;;;;;5097360;28;19919;-62
2022/12/03 12:40:19;;;;;;;;;;;18.50;39.10;;;;;;5096438;28;19920;-64
2022/12/03 12:42:48;;;;;;;;;;;18.50;39.10;;;;;;5096905;28;19938;-63
2022/12/03 12:45:18;;;;;;;;;;;18.50;39.20;;;;;;5114827;28;19924;-63
2022/12/03 12:47:47;;;;;;;;;;;18.50;39.20;;;;;;5077239;28;19989;-63
2022/12/03 12:50:14;;;;;;;;;;;18.50;39.30;;;;;;5081789;28;19950;-63
2022/12/03 12:52:42;;;;;;;;;;;18.50;39.40;;;;;;5106427;28;19927;-63
2022/12/03 12:55:09;;;;;;;;;;;18.50;39.40;;;;;;5105872;28;19920;-61
2022/12/03 12:57:36;;;;;;;;;;;18.50;39.10;;;;;;5089412;28;19920;-62
2022/12/03 13:00:04;;;;;;;;;;;18.60;39.30;;;;;;5076496;28;19927;-62
2022/12/03 13:02:37;;;;;;;;;;;18.60;39.30;;;;;;5076308;28;19920;-62
2022/12/03 13:05:04;;;;;;;;;;;18.50;39.30;;;;;;5080293;28;20273;-62
2022/12/03 13:07:31;;;;;;;;;;;18.50;39.30;;;;;;5096656;28;19924;-63
2022/12/03 13:09:58;;;;;;;;;;;18.60;39.30;;;;;;5096150;28;19920;-62
2022/12/03 13:12:25;;;;;;;;;;;18.60;39.40;;;;;;5083585;28;19927;-64
2022/12/03 13:14:52;;;;;;;;;;;18.60;39.50;;;;;;5111641;28;19927;-61
2022/12/03 13:17:22;;;;;;;;;;;18.60;39.50;;;;;;5093673;28;19924;-60
2022/12/03 13:19:50;;;;;;;;;;;18.60;39.60;;;;;;5081079;28;19974;-62
2022/12/03 13:22:18;;;;;;;;;;;18.60;39.60;;;;;;5075655;28;19959;-62
2022/12/03 13:24:46;;;;;;;;;;;18.60;39.70;;;;;;5075895;28;19927;-61
2022/12/03 13:27:21;;;;;;;;;;;18.60;39.70;;;;;;5076008;28;19921;-61
2022/12/03 13:29:49;;;;;;;;;;;18.60;39.80;;;;;;5074058;28;19924;-61
2022/12/03 13:32:18;;;;;;;;;;;18.60;39.90;;;;;;5076166;28;19924;-62
2022/12/03 13:34:45;;;;;;;;;;;18.60;39.90;;;;;;5088522;28;19927;-63
2022/12/03 13:37:14;;;;;;;;;;;18.60;39.90;;;;;;5088438;28;19920;-63
2022/12/03 13:39:45;;;;;;;;;;;18.70;40.00;;;;;;5095269;28;19920;-62
2022/12/03 13:44:59;;;;;;;;;;;18.70;40.10;;;;;;5092411;28;20254;-63
2022/12/03 13:47:26;;;;;;;;;;;18.70;40.10;;;;;;5100227;28;19924;-62
2022/12/03 13:49:54;;;;;;;;;;;18.70;40.20;;;;;;5098549;28;19920;-63
2022/12/03 13:52:23;;;;;;;;;;;18.70;40.20;;;;;;5100235;28;19919;-63
2022/12/03 13:54:50;;;;;;;;;;;18.70;40.20;;;;;;5100035;28;19927;-62
2022/12/03 13:57:17;;;;;;;;;;;18.70;40.20;;;;;;5098258;28;19992;-62
2022/12/03 13:59:44;;;;;;;;;;;18.70;40.20;;;;;;5094389;28;20458;-64
2022/12/03 14:02:11;;;;;;;;;;;18.70;40.30;;;;;;5097220;28;19923;-62
2022/12/03 14:04:38;;;;;;;;;;;18.70;40.30;;;;;;5095429;28;19923;-62
2022/12/03 14:07:05;;;;;;;;;;;18.70;40.30;;;;;;5099877;28;19924;-63
2022/12/03 14:09:33;;;;;;;;;;;18.70;40.40;;;;;;5097738;28;19927;-62
2022/12/03 14:14:44;;;;;;;;;;;18.80;40.40;;;;;;5098036;28;19927;-62
2022/12/03 14:17:11;;;;;;;;;;;18.80;40.50;;;;;;5099616;28;20265;-62
2022/12/03 14:19:38;;;;;;;;;;;18.80;40.50;;;;;;5090607;27;19931;-62
2022/12/03 14:22:06;;;;;;;;;;;18.80;40.60;;;;;;5120223;27;19927;-63
2022/12/03 14:24:35;;;;;;;;;;;18.80;40.60;;;;;;5095472;28;19919;-64
2022/12/03 14:27:01;;;;;;;;;;;18.80;40.60;;;;;;5096133;28;19965;-63
2022/12/03 14:29:28;;;;;;;;;;;18.80;40.60;;;;;;5100083;28;19927;-61
2022/12/03 14:31:55;;;;;;;;;;;18.80;40.60;;;;;;5100458;28;19920;-61
2022/12/03 14:34:22;;;;;;;;;;;18.80;40.60;;;;;;5098641;28;19920;-61
2022/12/03 14:36:48;;;;;;;;;;;18.80;40.60;;;;;;5100230;28;19920;-61
2022/12/03 14:39:15;;;;;;;;;;;18.80;40.60;;;;;;5116950;28;19927;-61
2022/12/03 14:44:27;;;;;;;;;;;18.80;40.60;;;;;;5095775;28;20043;-63